createdAt,value
2022-09-28T00:01:18.267Z,12.04
2022-09-28T00:03:48.307Z,12.04
2022-09-28T00:06:20.175Z,12.03
2022-09-28T00:08:50.210Z,12.01
2022-09-28T00:11:20.703Z,11.99
2022-09-28T00:13:51.759Z,11.96
2022-09-28T00:16:24.022Z,11.91
2022-09-28T00:18:53.070Z,11.90
2022-09-28T00:21:26.984Z,11.91
2022-09-28T00:24:12.849Z,11.91
2022-09-28T00:26:52.432Z,11.88
2022-09-28T00:29:31.906Z,11.85
2022-09-28T00:32:26.908Z,11.85
2022-09-28T00:34:58.266Z,11.79
2022-09-28T00:37:26.731Z,11.78
2022-09-28T00:39:55.698Z,11.76
2022-09-28T00:42:26.163Z,11.72
2022-09-28T00:44:58.644Z,11.69
2022-09-28T00:47:51.961Z,11.66
2022-09-28T00:50:37.152Z,11.65
2022-09-28T00:53:21.202Z,11.63
2022-09-28T00:55:57.223Z,11.62
2022-09-28T00:58:31.367Z,11.58
2022-09-28T01:01:00.968Z,11.55
2022-09-28T01:03:29.970Z,11.58
2022-09-28T01:06:02.212Z,11.62
2022-09-28T01:08:34.425Z,11.66
2022-09-28T01:11:02.430Z,11.71
2022-09-28T01:13:32.549Z,11.75
2022-09-28T01:16:16.383Z,11.75
2022-09-28T01:19:01.357Z,11.73
2022-09-28T01:21:48.224Z,11.74
2022-09-28T01:24:41.078Z,11.71
2022-09-28T01:27:24.894Z,11.66
2022-09-28T01:30:11.780Z,11.64
2022-09-28T01:33:01.502Z,11.65
2022-09-28T01:35:45.769Z,11.66
2022-09-28T01:38:22.486Z,11.63
2022-09-28T01:40:52.626Z,11.61
2022-09-28T01:43:25.067Z,11.60
2022-09-28T01:46:04.913Z,11.59
2022-09-28T01:48:40.033Z,11.56
2022-09-28T01:51:17.214Z,11.53
2022-09-28T01:53:51.640Z,11.50
2022-09-28T01:56:36.195Z,11.50
2022-09-28T01:59:28.256Z,11.52
2022-09-28T02:02:03.494Z,11.50
2022-09-28T02:04:40.791Z,11.47
2022-09-28T02:07:15.567Z,11.49
2022-09-28T02:09:47.992Z,11.47
2022-09-28T02:12:41.065Z,11.44
2022-09-28T02:15:23.571Z,11.38
2022-09-28T02:17:52.239Z,11.36
2022-09-28T02:20:23.900Z,11.32
2022-09-28T02:22:55.856Z,11.32
2022-09-28T02:25:36.826Z,11.37
2022-09-28T02:28:08.284Z,11.43
2022-09-28T02:30:38.801Z,11.46
2022-09-28T02:33:13.024Z,11.46
2022-09-28T02:35:42.819Z,11.47
2022-09-28T02:38:12.230Z,11.49
2022-09-28T02:40:44.945Z,11.53
2022-09-28T02:43:23.427Z,11.54
2022-09-28T02:45:56.555Z,11.53
2022-09-28T02:49:17.346Z,11.51
2022-09-28T02:51:53.711Z,11.50
2022-09-28T02:54:53.512Z,11.47
2022-09-28T02:57:38.294Z,11.42
2022-09-28T03:00:24.478Z,11.43
2022-09-28T03:03:14.873Z,11.42
2022-09-28T03:06:01.795Z,11.39
2022-09-28T03:08:44.209Z,11.30
2022-09-28T03:11:24.969Z,11.24
2022-09-28T03:13:53.511Z,11.20
2022-09-28T03:16:24.030Z,11.14
2022-09-28T03:18:52.363Z,11.11
2022-09-28T03:21:20.129Z,11.06
2022-09-28T03:23:48.093Z,11.02
2022-09-28T03:26:18.046Z,10.98
2022-09-28T03:28:46.391Z,10.95
2022-09-28T03:31:18.560Z,10.90
2022-09-28T03:33:46.606Z,10.88
2022-09-28T03:36:15.206Z,10.89
2022-09-28T03:38:43.200Z,10.88
2022-09-28T03:41:11.729Z,10.86
2022-09-28T03:43:41.690Z,10.81
2022-09-28T03:46:09.887Z,10.73
2022-09-28T03:48:42.266Z,10.69
2022-09-28T03:51:12.850Z,10.64
2022-09-28T03:53:40.891Z,10.59
2022-09-28T03:56:14.778Z,10.58
2022-09-28T03:58:42.970Z,10.59
2022-09-28T04:01:17.272Z,10.61
2022-09-28T04:03:47.607Z,10.60
2022-09-28T04:06:15.516Z,10.61
2022-09-28T04:08:43.602Z,10.59
2022-09-28T04:11:12.398Z,10.56
2022-09-28T04:13:40.915Z,10.54
2022-09-28T04:16:11.901Z,10.52
2022-09-28T04:18:43.883Z,10.52
2022-09-28T04:21:27.557Z,10.53
2022-09-28T04:24:04.720Z,10.52
2022-09-28T04:26:32.643Z,10.50
2022-09-28T04:29:16.570Z,10.47
2022-09-28T04:31:56.166Z,10.48
2022-09-28T04:34:36.561Z,10.48
2022-09-28T04:37:06.163Z,10.47
2022-09-28T04:39:34.151Z,10.47
2022-09-28T04:42:02.212Z,10.48
2022-09-28T04:44:30.175Z,10.48
2022-09-28T04:47:04.953Z,10.43
2022-09-28T04:49:35.473Z,10.41
2022-09-28T04:52:17.883Z,10.40
2022-09-28T04:54:48.358Z,10.40
2022-09-28T04:57:17.564Z,10.40
2022-09-28T04:59:45.321Z,10.40
2022-09-28T05:02:15.290Z,10.41
2022-09-28T05:04:59.507Z,10.41
2022-09-28T05:07:47.519Z,10.43
2022-09-28T05:10:15.377Z,10.46
2022-09-28T05:12:43.483Z,10.51
2022-09-28T05:15:12.192Z,10.54
2022-09-28T05:17:40.021Z,10.57
2022-09-28T05:20:21.022Z,10.59
2022-09-28T05:22:48.778Z,10.61
2022-09-28T05:25:16.631Z,10.64
2022-09-28T05:28:07.801Z,10.64
2022-09-28T05:30:52.216Z,10.63
2022-09-28T05:33:28.890Z,10.63
2022-09-28T05:36:13.068Z,10.64
2022-09-28T05:38:42.709Z,10.65
2022-09-28T05:41:10.773Z,10.63
2022-09-28T05:43:44.437Z,10.61
2022-09-28T05:46:13.042Z,10.59
2022-09-28T05:48:42.405Z,10.60
2022-09-28T05:51:10.361Z,10.60
2022-09-28T05:53:38.253Z,10.60
2022-09-28T05:56:06.415Z,10.58
2022-09-28T05:58:36.449Z,10.58
2022-09-28T06:01:04.427Z,10.57
2022-09-28T06:03:32.528Z,10.60
2022-09-28T06:06:09.553Z,10.63
2022-09-28T06:08:38.215Z,10.63
2022-09-28T06:11:26.947Z,10.64
2022-09-28T06:13:55.674Z,10.66
2022-09-28T06:16:24.229Z,10.64
2022-09-28T06:18:58.778Z,10.60
2022-09-28T06:21:38.389Z,10.60
2022-09-28T06:24:08.123Z,10.60
2022-09-28T06:26:38.268Z,10.60
2022-09-28T06:29:07.797Z,10.65
2022-09-28T06:31:35.804Z,10.67
2022-09-28T06:34:03.873Z,10.67
2022-09-28T06:36:31.873Z,10.70
2022-09-28T06:39:00.333Z,10.73
2022-09-28T06:41:28.542Z,10.78
2022-09-28T06:44:02.883Z,10.79
2022-09-28T06:46:55.983Z,10.81
2022-09-28T06:49:37.617Z,10.84
2022-09-28T06:52:28.598Z,10.93
2022-09-28T06:55:20.490Z,11.05
2022-09-28T06:57:59.409Z,11.14
2022-09-28T07:00:28.279Z,11.18
2022-09-28T07:02:56.862Z,11.26
2022-09-28T07:05:45.806Z,11.39
2022-09-28T07:08:37.258Z,11.44
2022-09-28T07:11:29.098Z,11.48
2022-09-28T07:14:22.829Z,11.59
2022-09-28T07:17:12.278Z,11.77
2022-09-28T07:19:40.619Z,11.92
2022-09-28T07:22:08.505Z,12.08
2022-09-28T07:24:36.271Z,12.19
2022-09-28T07:27:20.185Z,12.32
2022-09-28T07:30:05.295Z,12.42
2022-09-28T07:32:49.102Z,12.42
2022-09-28T07:35:24.657Z,12.41
2022-09-28T07:38:02.498Z,12.39
2022-09-28T07:40:48.503Z,12.36
2022-09-28T07:43:21.450Z,12.36
2022-09-28T07:45:54.102Z,12.38
2022-09-28T07:48:22.793Z,12.41
2022-09-28T07:50:52.474Z,12.42
2022-09-28T07:53:32.547Z,12.49
2022-09-28T07:56:19.526Z,12.55
2022-09-28T07:58:54.621Z,12.58
2022-09-28T08:01:25.837Z,12.60
2022-09-28T08:03:56.269Z,12.60
2022-09-28T08:06:25.320Z,12.61
2022-09-28T08:08:56.248Z,12.65
2022-09-28T08:11:30.210Z,12.62
2022-09-28T08:14:06.829Z,12.60
2022-09-28T08:16:54.963Z,12.57
2022-09-28T08:19:53.633Z,12.57
2022-09-28T08:22:22.564Z,12.59
2022-09-28T08:24:52.569Z,12.56
2022-09-28T08:27:20.378Z,12.59
2022-09-28T08:29:51.792Z,12.71
2022-09-28T08:32:36.144Z,12.75
2022-09-28T08:35:21.026Z,12.82
2022-09-28T08:38:08.641Z,12.86
2022-09-28T08:41:11.092Z,12.79
2022-09-28T08:43:54.669Z,12.65
2022-09-28T08:46:47.640Z,12.51
2022-09-28T08:49:27.252Z,12.54
2022-09-28T08:52:17.823Z,12.52
2022-09-28T08:54:57.686Z,12.39
2022-09-28T08:58:12.737Z,12.33
2022-09-28T09:00:48.532Z,12.37
2022-09-28T09:03:35.858Z,12.54
2022-09-28T09:06:54.469Z,12.72
2022-09-28T09:09:50.357Z,12.87
2022-09-28T09:12:41.525Z,12.93
2022-09-28T09:15:19.429Z,12.99
2022-09-28T09:18:09.228Z,13.02
2022-09-28T09:20:59.295Z,13.09
2022-09-28T09:23:39.237Z,13.15
2022-09-28T09:26:22.458Z,13.13
2022-09-28T09:29:01.183Z,13.02
2022-09-28T09:31:42.849Z,12.94
2022-09-28T09:34:27.798Z,12.84
2022-09-28T09:37:27.429Z,12.76
2022-09-28T09:40:43.116Z,12.79
2022-09-28T09:43:43.245Z,12.96
2022-09-28T09:46:59.071Z,13.14
2022-09-28T09:49:44.390Z,13.32
2022-09-28T09:52:44.495Z,13.34
2022-09-28T09:55:32.821Z,13.42
2022-09-28T09:58:22.515Z,13.61
2022-09-28T10:01:05.706Z,13.80
2022-09-28T10:03:55.731Z,14.00
2022-09-28T10:06:30.352Z,14.09
2022-09-28T10:09:21.570Z,14.10
2022-09-28T10:11:50.204Z,14.05
2022-09-28T10:14:21.945Z,14.01
2022-09-28T10:16:57.969Z,13.99
2022-09-28T10:19:46.314Z,13.98
2022-09-28T10:22:34.345Z,14.11
2022-09-28T10:25:09.852Z,14.32
2022-09-28T10:27:45.248Z,14.49
2022-09-28T10:30:18.190Z,14.56
2022-09-28T10:32:48.630Z,14.54
2022-09-28T10:35:27.134Z,14.54
2022-09-28T10:38:06.444Z,14.62
2022-09-28T10:41:03.350Z,14.72
2022-09-28T10:44:08.572Z,14.85
2022-09-28T10:47:13.168Z,14.98
2022-09-28T10:49:47.246Z,15.05
2022-09-28T10:52:34.977Z,14.99
2022-09-28T10:55:24.746Z,14.91
2022-09-28T10:57:53.425Z,14.74
2022-09-28T11:00:42.325Z,14.55
2022-09-28T11:03:25.257Z,14.41
2022-09-28T11:06:01.320Z,14.29
2022-09-28T11:08:38.316Z,14.19
2022-09-28T11:11:13.773Z,14.13
2022-09-28T11:14:03.382Z,14.14
2022-09-28T11:16:36.712Z,14.15
2022-09-28T11:19:28.523Z,14.11
2022-09-28T11:21:56.504Z,14.12
2022-09-28T11:24:32.023Z,14.24
2022-09-28T11:27:02.406Z,14.35
2022-09-28T11:29:53.068Z,14.45
2022-09-28T11:32:41.912Z,14.60
2022-09-28T11:35:36.529Z,14.68
2022-09-28T11:38:36.865Z,14.64
2022-09-28T11:41:37.583Z,14.64
2022-09-28T11:44:32.678Z,14.68
2022-09-28T11:47:34.370Z,14.81
2022-09-28T11:50:24.091Z,14.97
2022-09-28T11:53:11.977Z,15.04
2022-09-28T11:56:08.530Z,15.05
2022-09-28T11:58:58.001Z,15.02
2022-09-28T12:01:51.565Z,14.90
2022-09-28T12:04:41.969Z,14.85
2022-09-28T12:07:27.322Z,15.01
2022-09-28T12:10:15.081Z,15.21
2022-09-28T12:13:05.087Z,15.29
2022-09-28T12:16:15.066Z,15.33
2022-09-28T12:18:41.873Z,15.33
2022-09-28T12:21:25.742Z,15.38
2022-09-28T12:24:16.814Z,15.46
2022-09-28T12:26:53.979Z,15.50
2022-09-28T12:29:32.163Z,15.56
2022-09-28T12:32:03.198Z,15.55
2022-09-28T12:34:31.634Z,15.51
2022-09-28T12:37:10.013Z,15.43
2022-09-28T12:40:02.727Z,15.36
2022-09-28T12:42:46.195Z,15.37
2022-09-28T12:45:38.696Z,15.42
2022-09-28T12:49:04.164Z,15.84
2022-09-28T12:51:53.940Z,16.49
2022-09-28T12:54:58.204Z,16.89
2022-09-28T12:57:52.489Z,17.19
2022-09-28T13:00:24.549Z,17.51
2022-09-28T13:03:01.664Z,18.19
2022-09-28T13:05:48.750Z,19.01
2022-09-28T13:08:45.908Z,19.32
2022-09-28T13:11:37.450Z,20.13
2022-09-28T13:14:27.214Z,20.95
2022-09-28T13:17:08.506Z,22.89
2022-09-28T13:19:52.875Z,24.64
2022-09-28T13:22:45.751Z,26.30
2022-09-28T13:25:17.933Z,27.90
2022-09-28T13:27:53.626Z,28.56
2022-09-28T13:30:22.194Z,28.91
2022-09-28T13:32:50.453Z,28.12
2022-09-28T13:35:21.541Z,28.22
2022-09-28T13:38:25.550Z,29.42
2022-09-28T13:41:14.479Z,30.67
2022-09-28T13:44:16.368Z,31.38
2022-09-28T13:47:06.410Z,32.04
2022-09-28T13:49:52.823Z,31.62
2022-09-28T13:52:42.571Z,31.16
2022-09-28T13:55:33.017Z,31.61
2022-09-28T13:58:05.464Z,31.90
2022-09-28T14:00:51.202Z,32.28
2022-09-28T14:03:25.443Z,31.83
2022-09-28T14:06:11.560Z,31.87
2022-09-28T14:09:08.062Z,32.68
2022-09-28T14:11:36.746Z,33.56
2022-09-28T14:14:16.375Z,34.15
2022-09-28T14:16:44.815Z,34.39
2022-09-28T14:19:33.241Z,33.70
2022-09-28T14:22:28.942Z,33.00
2022-09-28T14:25:03.144Z,31.98
2022-09-28T14:27:52.743Z,30.19
2022-09-28T14:30:24.966Z,28.32
2022-09-28T14:32:56.879Z,26.56
2022-09-28T14:35:41.497Z,25.16
2022-09-28T14:38:38.170Z,23.91
2022-09-28T14:41:10.751Z,22.67
2022-09-28T14:43:45.514Z,21.88
2022-09-28T14:46:20.009Z,21.13
2022-09-28T14:48:54.989Z,20.45
2022-09-28T14:51:43.970Z,19.82
2022-09-28T14:54:11.726Z,19.25
2022-09-28T14:56:57.265Z,18.86
2022-09-28T14:59:29.469Z,18.42
2022-09-28T15:02:03.474Z,18.04
2022-09-28T15:04:33.300Z,17.68
2022-09-28T15:07:01.324Z,17.59
2022-09-28T15:09:39.111Z,17.50
2022-09-28T15:12:27.677Z,17.36
2022-09-28T15:14:59.121Z,17.14
2022-09-28T15:17:39.166Z,16.86
2022-09-28T15:20:32.850Z,16.58
2022-09-28T15:23:00.700Z,16.29
2022-09-28T15:25:31.766Z,16.03
2022-09-28T15:28:13.255Z,15.71
2022-09-28T15:30:41.106Z,15.41
2022-09-28T15:33:40.512Z,15.14
2022-09-28T15:36:15.100Z,14.89
2022-09-28T15:38:43.523Z,14.74
2022-09-28T15:41:11.700Z,14.61
2022-09-28T15:43:41.414Z,14.48
2022-09-28T15:46:20.930Z,14.32
2022-09-28T15:48:59.554Z,14.16
2022-09-28T15:51:29.080Z,13.99
2022-09-28T15:54:13.745Z,13.82
2022-09-28T15:56:59.645Z,13.58
2022-09-28T15:59:34.743Z,13.35
2022-09-28T16:02:23.078Z,13.18
2022-09-28T16:04:58.662Z,13.05
2022-09-28T16:07:56.091Z,12.94
2022-09-28T16:10:30.480Z,12.84
2022-09-28T16:13:16.037Z,12.74
2022-09-28T16:15:44.787Z,12.67
2022-09-28T16:18:30.867Z,12.60
2022-09-28T16:21:38.762Z,12.51
2022-09-28T16:24:08.558Z,12.37
2022-09-28T16:26:38.969Z,12.25
2022-09-28T16:29:25.570Z,12.15
2022-09-28T16:31:53.551Z,12.05
2022-09-28T16:34:25.743Z,11.98
2022-09-28T16:36:54.099Z,11.94
2022-09-28T16:39:21.891Z,11.89
2022-09-28T16:41:55.342Z,11.82
2022-09-28T16:44:29.273Z,11.80
2022-09-28T16:47:00.216Z,11.79
2022-09-28T16:49:29.609Z,11.78
2022-09-28T16:51:57.397Z,11.79
2022-09-28T16:54:40.501Z,11.81
2022-09-28T16:57:12.627Z,11.86
2022-09-28T16:59:40.862Z,11.89
2022-09-28T17:05:19.441Z,11.92
2022-09-28T17:08:02.185Z,11.89
2022-09-28T17:11:09.334Z,11.84
2022-09-28T17:13:33.890Z,11.78
2022-09-28T17:16:37.139Z,11.75
2022-09-28T17:19:19.678Z,11.71
2022-09-28T17:21:48.780Z,11.66
2022-09-28T17:24:17.653Z,11.60
2022-09-28T17:26:49.030Z,11.53
2022-09-28T17:29:17.687Z,11.45
2022-09-28T17:31:47.214Z,11.33
2022-09-28T17:34:16.600Z,11.19
2022-09-28T17:36:45.165Z,11.09
2022-09-28T17:39:15.981Z,10.99
2022-09-28T17:41:44.022Z,10.90
2022-09-28T17:44:16.549Z,10.83
2022-09-28T17:46:49.065Z,10.74
2022-09-28T17:49:17.620Z,10.65
2022-09-28T17:51:45.572Z,10.62
2022-09-28T17:54:13.723Z,10.62
2022-09-28T17:56:42.595Z,10.59
2022-09-28T17:59:14.439Z,10.57
2022-09-28T18:01:42.408Z,10.60
2022-09-28T18:04:23.042Z,10.60
2022-09-28T18:07:00.371Z,10.64
2022-09-28T18:09:28.619Z,10.69
2022-09-28T18:12:01.228Z,10.73
2022-09-28T18:14:30.243Z,10.72
2022-09-28T18:16:58.200Z,10.70
2022-09-28T18:19:31.675Z,10.67
2022-09-28T18:22:01.514Z,10.66
2022-09-28T18:24:32.364Z,10.66
2022-09-28T18:27:00.777Z,10.66
2022-09-28T18:29:33.085Z,10.67
2022-09-28T18:32:02.798Z,10.64
2022-09-28T18:34:30.885Z,10.63
2022-09-28T18:36:58.699Z,10.60
2022-09-28T18:39:26.718Z,10.60
2022-09-28T18:41:54.840Z,10.63
2022-09-28T18:44:23.710Z,10.67
2022-09-28T18:46:51.663Z,10.72
2022-09-28T18:49:20.478Z,10.73
2022-09-28T18:51:48.851Z,10.77
2022-09-28T18:54:17.109Z,10.77
2022-09-28T18:56:45.040Z,10.76
2022-09-28T18:59:14.070Z,10.68
2022-09-28T19:01:42.677Z,10.62
2022-09-28T19:04:11.946Z,10.56
2022-09-28T19:06:41.719Z,10.48
2022-09-28T19:09:10.565Z,10.41
2022-09-28T19:11:38.465Z,10.37
2022-09-28T19:14:06.397Z,10.34
2022-09-28T19:16:34.281Z,10.35
2022-09-28T19:19:03.273Z,10.37
2022-09-28T19:21:31.722Z,10.41
2022-09-28T19:24:04.226Z,10.44
2022-09-28T19:26:32.846Z,10.43
2022-09-28T19:29:02.713Z,10.46
2022-09-28T19:31:31.195Z,10.45
2022-09-28T19:33:59.310Z,10.40
2022-09-28T19:36:28.443Z,10.39
2022-09-28T19:38:58.794Z,10.38
2022-09-28T19:41:44.607Z,10.35
2022-09-28T19:44:27.727Z,10.34
2022-09-28T19:47:08.793Z,10.34
2022-09-28T19:49:39.952Z,10.38
2022-09-28T19:52:15.822Z,10.40
2022-09-28T19:54:45.200Z,10.39
2022-09-28T19:57:15.022Z,10.34
2022-09-28T19:59:43.395Z,10.34
2022-09-28T20:02:11.623Z,10.33
2022-09-28T20:04:39.674Z,10.36
2022-09-28T20:07:07.720Z,10.37
2022-09-28T20:09:35.564Z,10.36
2022-09-28T20:12:03.791Z,10.34
2022-09-28T20:14:36.476Z,10.32
2022-09-28T20:17:08.105Z,10.32
2022-09-28T20:19:35.978Z,10.35
2022-09-28T20:22:04.126Z,10.38
2022-09-28T20:24:32.619Z,10.41
2022-09-28T20:27:01.504Z,10.44
2022-09-28T20:29:34.696Z,10.45
2022-09-28T20:32:04.093Z,10.46
2022-09-28T20:34:33.931Z,10.46
2022-09-28T20:37:01.794Z,10.48
2022-09-28T20:39:29.869Z,10.47
2022-09-28T20:41:57.776Z,10.48
2022-09-28T20:44:25.695Z,10.51
2022-09-28T20:46:53.607Z,10.57
2022-09-28T20:49:21.629Z,10.62
2022-09-28T20:51:49.471Z,10.69
2022-09-28T20:54:17.468Z,10.72
2022-09-28T20:56:48.047Z,10.66
2022-09-28T20:59:16.273Z,10.58
2022-09-28T21:01:44.242Z,10.55
2022-09-28T21:04:12.561Z,10.57
2022-09-28T21:06:42.085Z,10.63
2022-09-28T21:09:11.284Z,10.69
2022-09-28T21:11:40.350Z,10.77
2022-09-28T21:14:10.331Z,10.80
2022-09-28T21:16:38.545Z,10.79
2022-09-28T21:19:06.600Z,10.76
2022-09-28T21:21:34.473Z,10.70
2022-09-28T21:24:03.164Z,10.59
2022-09-28T21:26:32.216Z,10.51
2022-09-28T21:29:02.551Z,10.45
2022-09-28T21:31:43.018Z,10.39
2022-09-28T21:34:13.431Z,10.27
2022-09-28T21:36:43.296Z,10.18
2022-09-28T21:39:11.285Z,10.12
2022-09-28T21:41:40.176Z,10.11
2022-09-28T21:44:08.625Z,10.11
2022-09-28T21:46:38.444Z,10.12
2022-09-28T21:49:08.331Z,10.09
2022-09-28T21:51:37.538Z,10.02
2022-09-28T21:54:05.946Z,9.96
2022-09-28T21:56:34.075Z,9.92
2022-09-28T21:59:02.382Z,9.91
2022-09-28T22:01:31.624Z,9.88
2022-09-28T22:03:59.899Z,9.83
2022-09-28T22:06:28.179Z,9.79
2022-09-28T22:08:56.755Z,9.77
2022-09-28T22:11:27.706Z,9.77
2022-09-28T22:13:58.507Z,9.82
2022-09-28T22:16:31.094Z,9.83
2022-09-28T22:18:59.794Z,9.86
2022-09-28T22:21:32.602Z,9.89
2022-09-28T22:24:07.292Z,9.94
2022-09-28T22:26:37.188Z,9.97
2022-09-28T22:29:08.103Z,9.98
2022-09-28T22:31:39.288Z,10.00
2022-09-28T22:34:08.591Z,10.01
2022-09-28T22:36:36.783Z,10.01
2022-09-28T22:39:04.712Z,10.01
2022-09-28T22:41:33.250Z,10.03
2022-09-28T22:44:01.732Z,10.07
2022-09-28T22:46:32.539Z,10.11
2022-09-28T22:49:00.978Z,10.13
2022-09-28T22:51:30.623Z,10.18
2022-09-28T22:53:59.269Z,10.20
2022-09-28T22:56:27.906Z,10.23
2022-09-28T22:58:56.494Z,10.23
2022-09-28T23:01:26.524Z,10.24
2022-09-28T23:03:55.964Z,10.26
2022-09-28T23:06:26.755Z,10.27
2022-09-28T23:08:54.590Z,10.28
2022-09-28T23:11:22.592Z,10.29
2022-09-28T23:13:52.514Z,10.30
2022-09-28T23:16:23.389Z,10.29
2022-09-28T23:18:52.474Z,10.31
2022-09-28T23:21:23.340Z,10.32
2022-09-28T23:24:01.620Z,10.33
2022-09-28T23:26:31.784Z,10.35
2022-09-28T23:29:00.363Z,10.35
2022-09-28T23:31:31.135Z,10.35
2022-09-28T23:34:04.922Z,10.37
2022-09-28T23:36:33.918Z,10.34
2022-09-28T23:39:03.507Z,10.27
2022-09-28T23:41:31.428Z,10.22
2022-09-28T23:43:59.295Z,10.21
2022-09-28T23:46:27.365Z,10.23
2022-09-28T23:48:55.312Z,10.24
2022-09-28T23:51:23.202Z,10.27
2022-09-28T23:53:51.081Z,10.26
2022-09-28T23:56:19.069Z,10.28
2022-09-28T23:58:46.885Z,10.32
